sensor_id;sensor_type;location;lat;lon;timestamp;P1;durP1;ratioP1;P2;durP2;ratioP2
65162;SDS011;51751;55.714;37.436;2023-08-17T00:00:12;27.08;;;8.02;;
65162;SDS011;51751;55.714;37.436;2023-08-17T00:02:39;22.55;;;7.80;;
65162;SDS011;51751;55.714;37.436;2023-08-17T00:05:06;22.27;;;7.90;;
65162;SDS011;51751;55.714;37.436;2023-08-17T00:07:33;23.85;;;7.78;;
65162;SDS011;51751;55.714;37.436;2023-08-17T00:09:59;19.73;;;8.23;;
65162;SDS011;51751;55.714;37.436;2023-08-17T00:12:25;16.92;;;7.68;;
65162;SDS011;51751;55.714;37.436;2023-08-17T00:14:51;18.33;;;8.25;;
65162;SDS011;51751;55.714;37.436;2023-08-17T00:17:18;18.67;;;8.18;;
65162;SDS011;51751;55.714;37.436;2023-08-17T00:19:45;28.25;;;9.25;;
65162;SDS011;51751;55.714;37.436;2023-08-17T00:22:11;28.25;;;8.45;;
65162;SDS011;51751;55.714;37.436;2023-08-17T00:24:37;23.55;;;8.30;;
65162;SDS011;51751;55.714;37.436;2023-08-17T00:27:04;27.42;;;8.10;;
65162;SDS011;51751;55.714;37.436;2023-08-17T00:29:29;31.35;;;8.15;;
65162;SDS011;51751;55.714;37.436;2023-08-17T00:31:56;23.95;;;8.20;;
65162;SDS011;51751;55.714;37.436;2023-08-17T00:34:21;31.60;;;8.32;;
65162;SDS011;51751;55.714;37.436;2023-08-17T00:36:47;24.73;;;9.63;;
65162;SDS011;51751;55.714;37.436;2023-08-17T00:39:13;26.42;;;8.27;;
65162;SDS011;51751;55.714;37.436;2023-08-17T00:41:40;22.42;;;8.93;;
65162;SDS011;51751;55.714;37.436;2023-08-17T00:44:06;23.52;;;8.32;;
65162;SDS011;51751;55.714;37.436;2023-08-17T00:46:32;22.83;;;8.15;;
65162;SDS011;51751;55.714;37.436;2023-08-17T00:48:58;24.55;;;8.15;;
65162;SDS011;51751;55.714;37.436;2023-08-17T00:51:24;20.10;;;7.47;;
65162;SDS011;51751;55.714;37.436;2023-08-17T00:53:51;15.52;;;7.68;;
65162;SDS011;51751;55.714;37.436;2023-08-17T00:56:18;18.42;;;8.13;;
65162;SDS011;51751;55.714;37.436;2023-08-17T00:58:44;15.57;;;7.18;;
65162;SDS011;51751;55.714;37.436;2023-08-17T01:04:02;15.45;;;7.45;;
65162;SDS011;51751;55.714;37.436;2023-08-17T01:06:28;20.90;;;7.85;;
65162;SDS011;51751;55.714;37.436;2023-08-17T01:08:55;24.63;;;8.38;;
65162;SDS011;51751;55.714;37.436;2023-08-17T01:11:26;19.80;;;7.82;;
65162;SDS011;51751;55.714;37.436;2023-08-17T01:14:13;21.17;;;7.80;;
65162;SDS011;51751;55.714;37.436;2023-08-17T01:16:53;19.77;;;7.70;;
65162;SDS011;51751;55.714;37.436;2023-08-17T01:19:32;18.13;;;7.72;;
65162;SDS011;51751;55.714;37.436;2023-08-17T01:22:08;22.55;;;7.95;;
65162;SDS011;51751;55.714;37.436;2023-08-17T01:24:34;19.60;;;8.38;;
65162;SDS011;51751;55.714;37.436;2023-08-17T01:27:01;22.25;;;8.35;;
65162;SDS011;51751;55.714;37.436;2023-08-17T01:29:27;18.55;;;7.45;;
65162;SDS011;51751;55.714;37.436;2023-08-17T01:34:48;17.92;;;7.57;;
65162;SDS011;51751;55.714;37.436;2023-08-17T01:37:22;24.40;;;8.15;;
65162;SDS011;51751;55.714;37.436;2023-08-17T01:39:52;22.10;;;7.82;;
65162;SDS011;51751;55.714;37.436;2023-08-17T01:42:21;22.00;;;8.70;;
65162;SDS011;51751;55.714;37.436;2023-08-17T01:44:47;20.65;;;7.63;;
65162;SDS011;51751;55.714;37.436;2023-08-17T01:47:15;25.15;;;8.32;;
65162;SDS011;51751;55.714;37.436;2023-08-17T01:49:40;21.40;;;8.13;;
65162;SDS011;51751;55.714;37.436;2023-08-17T01:52:09;20.42;;;7.95;;
65162;SDS011;51751;55.714;37.436;2023-08-17T01:54:41;24.38;;;8.27;;
65162;SDS011;51751;55.714;37.436;2023-08-17T01:57:07;21.90;;;7.93;;
65162;SDS011;51751;55.714;37.436;2023-08-17T01:59:33;16.50;;;7.57;;
65162;SDS011;51751;55.714;37.436;2023-08-17T02:01:59;20.75;;;8.48;;
65162;SDS011;51751;55.714;37.436;2023-08-17T02:04:44;21.48;;;7.65;;
65162;SDS011;51751;55.714;37.436;2023-08-17T02:07:10;21.55;;;8.05;;
65162;SDS011;51751;55.714;37.436;2023-08-17T02:09:39;20.80;;;7.55;;
65162;SDS011;51751;55.714;37.436;2023-08-17T02:12:08;20.10;;;7.88;;
65162;SDS011;51751;55.714;37.436;2023-08-17T02:14:34;16.92;;;8.32;;
65162;SDS011;51751;55.714;37.436;2023-08-17T02:17:00;20.33;;;8.48;;
65162;SDS011;51751;55.714;37.436;2023-08-17T02:19:27;16.10;;;7.35;;
65162;SDS011;51751;55.714;37.436;2023-08-17T02:21:53;21.10;;;8.48;;
65162;SDS011;51751;55.714;37.436;2023-08-17T02:24:19;26.58;;;8.35;;
65162;SDS011;51751;55.714;37.436;2023-08-17T02:27:03;19.10;;;8.13;;
65162;SDS011;51751;55.714;37.436;2023-08-17T02:29:30;22.92;;;7.63;;
65162;SDS011;51751;55.714;37.436;2023-08-17T02:31:55;17.35;;;8.13;;
65162;SDS011;51751;55.714;37.436;2023-08-17T02:34:21;22.52;;;8.18;;
65162;SDS011;51751;55.714;37.436;2023-08-17T02:36:47;27.73;;;8.05;;
65162;SDS011;51751;55.714;37.436;2023-08-17T02:39:13;21.25;;;8.05;;
65162;SDS011;51751;55.714;37.436;2023-08-17T02:41:39;20.83;;;8.02;;
65162;SDS011;51751;55.714;37.436;2023-08-17T02:44:06;19.92;;;8.48;;
65162;SDS011;51751;55.714;37.436;2023-08-17T02:46:34;16.50;;;8.05;;
65162;SDS011;51751;55.714;37.436;2023-08-17T02:49:00;16.60;;;7.80;;
65162;SDS011;51751;55.714;37.436;2023-08-17T02:51:26;30.23;;;8.55;;
65162;SDS011;51751;55.714;37.436;2023-08-17T02:53:52;17.00;;;8.38;;
65162;SDS011;51751;55.714;37.436;2023-08-17T02:56:18;22.30;;;7.60;;
65162;SDS011;51751;55.714;37.436;2023-08-17T02:58:44;19.80;;;8.98;;
65162;SDS011;51751;55.714;37.436;2023-08-17T03:01:09;20.50;;;8.73;;
65162;SDS011;51751;55.714;37.436;2023-08-17T03:03:35;28.30;;;9.43;;
65162;SDS011;51751;55.714;37.436;2023-08-17T03:06:02;22.50;;;10.27;;
65162;SDS011;51751;55.714;37.436;2023-08-17T03:08:28;17.60;;;9.57;;
65162;SDS011;51751;55.714;37.436;2023-08-17T03:11:03;23.00;;;8.60;;
65162;SDS011;51751;55.714;37.436;2023-08-17T03:13:33;27.08;;;8.68;;
65162;SDS011;51751;55.714;37.436;2023-08-17T03:16:05;24.80;;;9.18;;
65162;SDS011;51751;55.714;37.436;2023-08-17T03:18:31;32.50;;;9.02;;
65162;SDS011;51751;55.714;37.436;2023-08-17T03:20:58;25.75;;;9.90;;
65162;SDS011;51751;55.714;37.436;2023-08-17T03:23:24;19.02;;;9.02;;
65162;SDS011;51751;55.714;37.436;2023-08-17T03:25:52;18.80;;;8.57;;
65162;SDS011;51751;55.714;37.436;2023-08-17T03:28:19;31.88;;;8.75;;
65162;SDS011;51751;55.714;37.436;2023-08-17T03:30:48;24.50;;;7.80;;
65162;SDS011;51751;55.714;37.436;2023-08-17T03:33:14;23.92;;;8.73;;
65162;SDS011;51751;55.714;37.436;2023-08-17T03:35:41;23.40;;;8.50;;
65162;SDS011;51751;55.714;37.436;2023-08-17T03:38:10;23.95;;;8.27;;
65162;SDS011;51751;55.714;37.436;2023-08-17T03:40:37;22.00;;;8.55;;
65162;SDS011;51751;55.714;37.436;2023-08-17T03:43:09;21.27;;;7.82;;
65162;SDS011;51751;55.714;37.436;2023-08-17T03:45:35;16.42;;;8.10;;
65162;SDS011;51751;55.714;37.436;2023-08-17T03:48:01;24.30;;;8.48;;
65162;SDS011;51751;55.714;37.436;2023-08-17T03:50:27;18.98;;;8.32;;
65162;SDS011;51751;55.714;37.436;2023-08-17T03:52:58;26.05;;;9.20;;
65162;SDS011;51751;55.714;37.436;2023-08-17T03:55:25;28.13;;;8.30;;
65162;SDS011;51751;55.714;37.436;2023-08-17T03:57:51;20.77;;;8.32;;
65162;SDS011;51751;55.714;37.436;2023-08-17T04:00:17;56.85;;;9.82;;
65162;SDS011;51751;55.714;37.436;2023-08-17T04:02:43;113.13;;;13.38;;
65162;SDS011;51751;55.714;37.436;2023-08-17T04:05:13;85.28;;;11.88;;
65162;SDS011;51751;55.714;37.436;2023-08-17T04:07:39;76.25;;;11.88;;
65162;SDS011;51751;55.714;37.436;2023-08-17T04:10:06;35.60;;;9.63;;
65162;SDS011;51751;55.714;37.436;2023-08-17T04:12:32;35.38;;;9.38;;
65162;SDS011;51751;55.714;37.436;2023-08-17T04:14:58;42.05;;;9.77;;
65162;SDS011;51751;55.714;37.436;2023-08-17T04:17:25;31.92;;;8.70;;
65162;SDS011;51751;55.714;37.436;2023-08-17T04:19:51;31.15;;;8.90;;
65162;SDS011;51751;55.714;37.436;2023-08-17T04:22:17;26.65;;;9.40;;
65162;SDS011;51751;55.714;37.436;2023-08-17T04:24:43;24.60;;;8.90;;
65162;SDS011;51751;55.714;37.436;2023-08-17T04:27:09;27.67;;;9.02;;
65162;SDS011;51751;55.714;37.436;2023-08-17T04:29:37;23.55;;;9.48;;
65162;SDS011;51751;55.714;37.436;2023-08-17T04:32:04;44.75;;;10.35;;
65162;SDS011;51751;55.714;37.436;2023-08-17T04:34:30;38.28;;;10.25;;
65162;SDS011;51751;55.714;37.436;2023-08-17T04:36:56;49.08;;;10.77;;
65162;SDS011;51751;55.714;37.436;2023-08-17T04:39:25;38.78;;;10.55;;
65162;SDS011;51751;55.714;37.436;2023-08-17T04:41:51;36.22;;;9.55;;
65162;SDS011;51751;55.714;37.436;2023-08-17T04:44:24;27.85;;;9.82;;
65162;SDS011;51751;55.714;37.436;2023-08-17T04:46:51;25.88;;;9.88;;
65162;SDS011;51751;55.714;37.436;2023-08-17T04:49:19;34.45;;;10.52;;
65162;SDS011;51751;55.714;37.436;2023-08-17T04:51:46;31.58;;;9.75;;
65162;SDS011;51751;55.714;37.436;2023-08-17T04:54:12;40.75;;;10.57;;
65162;SDS011;51751;55.714;37.436;2023-08-17T04:56:46;28.02;;;9.00;;
65162;SDS011;51751;55.714;37.436;2023-08-17T04:59:12;22.75;;;8.73;;
65162;SDS011;51751;55.714;37.436;2023-08-17T05:01:38;21.23;;;9.70;;
65162;SDS011;51751;55.714;37.436;2023-08-17T05:04:04;25.85;;;9.70;;
65162;SDS011;51751;55.714;37.436;2023-08-17T05:06:31;26.73;;;8.80;;
65162;SDS011;51751;55.714;37.436;2023-08-17T05:09:00;28.67;;;8.95;;
65162;SDS011;51751;55.714;37.436;2023-08-17T05:11:28;24.60;;;8.15;;
65162;SDS011;51751;55.714;37.436;2023-08-17T05:13:55;24.95;;;8.05;;
65162;SDS011;51751;55.714;37.436;2023-08-17T05:16:22;16.60;;;7.75;;
65162;SDS011;51751;55.714;37.436;2023-08-17T05:18:49;18.33;;;8.40;;
65162;SDS011;51751;55.714;37.436;2023-08-17T05:21:16;18.33;;;7.65;;
65162;SDS011;51751;55.714;37.436;2023-08-17T05:23:42;17.17;;;7.28;;
65162;SDS011;51751;55.714;37.436;2023-08-17T05:26:08;19.60;;;7.15;;
65162;SDS011;51751;55.714;37.436;2023-08-17T05:28:34;13.48;;;6.57;;
65162;SDS011;51751;55.714;37.436;2023-08-17T05:31:08;12.40;;;6.20;;
65162;SDS011;51751;55.714;37.436;2023-08-17T05:36:34;18.60;;;6.45;;
65162;SDS011;51751;55.714;37.436;2023-08-17T05:39:03;13.40;;;6.38;;
65162;SDS011;51751;55.714;37.436;2023-08-17T05:41:30;14.15;;;5.18;;
65162;SDS011;51751;55.714;37.436;2023-08-17T05:43:55;14.75;;;5.25;;
65162;SDS011;51751;55.714;37.436;2023-08-17T05:46:21;10.55;;;4.13;;
65162;SDS011;51751;55.714;37.436;2023-08-17T05:48:47;15.90;;;4.85;;
65162;SDS011;51751;55.714;37.436;2023-08-17T05:51:14;6.50;;;2.95;;
65162;SDS011;51751;55.714;37.436;2023-08-17T05:53:45;9.07;;;2.88;;
65162;SDS011;51751;55.714;37.436;2023-08-17T05:56:11;10.05;;;2.60;;
65162;SDS011;51751;55.714;37.436;2023-08-17T05:58:40;4.50;;;2.50;;
65162;SDS011;51751;55.714;37.436;2023-08-17T06:01:10;7.03;;;2.38;;
65162;SDS011;51751;55.714;37.436;2023-08-17T06:03:36;6.32;;;2.50;;
65162;SDS011;51751;55.714;37.436;2023-08-17T06:06:03;7.43;;;2.60;;
65162;SDS011;51751;55.714;37.436;2023-08-17T06:08:36;7.95;;;2.55;;
65162;SDS011;51751;55.714;37.436;2023-08-17T06:11:57;5.50;;;2.53;;
65162;SDS011;51751;55.714;37.436;2023-08-17T06:14:50;10.60;;;2.60;;
65162;SDS011;51751;55.714;37.436;2023-08-17T06:17:16;5.45;;;2.13;;
65162;SDS011;51751;55.714;37.436;2023-08-17T06:19:45;5.78;;;2.50;;
65162;SDS011;51751;55.714;37.436;2023-08-17T06:22:11;4.97;;;2.30;;
65162;SDS011;51751;55.714;37.436;2023-08-17T06:24:39;7.07;;;2.42;;
65162;SDS011;51751;55.714;37.436;2023-08-17T06:27:05;4.40;;;2.50;;
65162;SDS011;51751;55.714;37.436;2023-08-17T06:29:31;5.20;;;2.22;;
65162;SDS011;51751;55.714;37.436;2023-08-17T06:31:57;6.25;;;2.35;;
65162;SDS011;51751;55.714;37.436;2023-08-17T06:34:23;4.63;;;2.05;;
65162;SDS011;51751;55.714;37.436;2023-08-17T06:39:28;4.88;;;2.33;;
65162;SDS011;51751;55.714;37.436;2023-08-17T06:41:54;2.88;;;1.90;;
65162;SDS011;51751;55.714;37.436;2023-08-17T06:44:21;11.05;;;2.30;;
65162;SDS011;51751;55.714;37.436;2023-08-17T06:46:47;11.50;;;2.38;;
65162;SDS011;51751;55.714;37.436;2023-08-17T06:49:13;4.03;;;2.15;;
65162;SDS011;51751;55.714;37.436;2023-08-17T06:51:39;5.72;;;2.00;;
65162;SDS011;51751;55.714;37.436;2023-08-17T06:54:08;5.53;;;2.42;;
65162;SDS011;51751;55.714;37.436;2023-08-17T06:56:34;7.90;;;2.58;;
65162;SDS011;51751;55.714;37.436;2023-08-17T06:59:00;9.40;;;3.25;;
65162;SDS011;51751;55.714;37.436;2023-08-17T07:01:26;7.65;;;2.90;;
65162;SDS011;51751;55.714;37.436;2023-08-17T07:03:52;9.20;;;2.50;;
65162;SDS011;51751;55.714;37.436;2023-08-17T07:06:18;11.02;;;2.80;;
65162;SDS011;51751;55.714;37.436;2023-08-17T07:08:44;7.00;;;2.85;;
65162;SDS011;51751;55.714;37.436;2023-08-17T07:11:11;7.57;;;2.90;;
65162;SDS011;51751;55.714;37.436;2023-08-17T07:13:37;10.68;;;3.28;;
65162;SDS011;51751;55.714;37.436;2023-08-17T07:16:03;7.93;;;3.10;;
65162;SDS011;51751;55.714;37.436;2023-08-17T07:18:29;8.55;;;3.22;;
65162;SDS011;51751;55.714;37.436;2023-08-17T07:20:55;5.50;;;2.80;;
65162;SDS011;51751;55.714;37.436;2023-08-17T07:23:21;8.13;;;2.80;;
65162;SDS011;51751;55.714;37.436;2023-08-17T07:25:48;11.88;;;3.22;;
65162;SDS011;51751;55.714;37.436;2023-08-17T07:28:17;7.60;;;2.97;;
65162;SDS011;51751;55.714;37.436;2023-08-17T07:30:43;7.68;;;3.08;;
65162;SDS011;51751;55.714;37.436;2023-08-17T07:33:09;6.18;;;2.90;;
65162;SDS011;51751;55.714;37.436;2023-08-17T07:35:35;9.02;;;3.08;;
65162;SDS011;51751;55.714;37.436;2023-08-17T07:38:01;10.32;;;3.22;;
65162;SDS011;51751;55.714;37.436;2023-08-17T07:40:27;4.55;;;2.33;;
65162;SDS011;51751;55.714;37.436;2023-08-17T07:42:53;8.48;;;2.97;;
65162;SDS011;51751;55.714;37.436;2023-08-17T07:45:19;5.45;;;3.00;;
65162;SDS011;51751;55.714;37.436;2023-08-17T07:47:49;15.73;;;2.90;;
65162;SDS011;51751;55.714;37.436;2023-08-17T07:50:18;13.05;;;3.03;;
65162;SDS011;51751;55.714;37.436;2023-08-17T07:52:45;6.13;;;2.88;;
65162;SDS011;51751;55.714;37.436;2023-08-17T07:55:11;9.85;;;2.90;;
65162;SDS011;51751;55.714;37.436;2023-08-17T07:57:40;7.68;;;2.80;;
65162;SDS011;51751;55.714;37.436;2023-08-17T08:00:06;10.85;;;2.80;;
65162;SDS011;51751;55.714;37.436;2023-08-17T08:02:36;10.43;;;2.85;;
65162;SDS011;51751;55.714;37.436;2023-08-17T08:05:02;7.45;;;2.95;;
65162;SDS011;51751;55.714;37.436;2023-08-17T08:07:30;8.63;;;2.95;;
65162;SDS011;51751;55.714;37.436;2023-08-17T08:09:56;7.63;;;2.78;;
65162;SDS011;51751;55.714;37.436;2023-08-17T08:12:25;8.30;;;2.92;;
65162;SDS011;51751;55.714;37.436;2023-08-17T08:14:54;7.15;;;2.80;;
65162;SDS011;51751;55.714;37.436;2023-08-17T08:17:20;5.03;;;2.50;;
65162;SDS011;51751;55.714;37.436;2023-08-17T08:19:46;6.60;;;2.60;;
65162;SDS011;51751;55.714;37.436;2023-08-17T08:22:12;6.03;;;2.30;;
65162;SDS011;51751;55.714;37.436;2023-08-17T08:24:38;9.10;;;2.47;;
65162;SDS011;51751;55.714;37.436;2023-08-17T08:27:06;5.15;;;2.40;;
65162;SDS011;51751;55.714;37.436;2023-08-17T08:29:32;9.00;;;2.60;;
65162;SDS011;51751;55.714;37.436;2023-08-17T08:31:59;9.27;;;2.80;;
65162;SDS011;51751;55.714;37.436;2023-08-17T08:34:46;19.83;;;2.60;;
65162;SDS011;51751;55.714;37.436;2023-08-17T08:37:15;7.70;;;2.60;;
65162;SDS011;51751;55.714;37.436;2023-08-17T08:39:50;7.20;;;2.30;;
65162;SDS011;51751;55.714;37.436;2023-08-17T08:42:18;7.22;;;2.53;;
65162;SDS011;51751;55.714;37.436;2023-08-17T08:44:45;11.00;;;2.70;;
65162;SDS011;51751;55.714;37.436;2023-08-17T08:47:11;5.80;;;2.53;;
65162;SDS011;51751;55.714;37.436;2023-08-17T08:49:39;4.78;;;2.45;;
65162;SDS011;51751;55.714;37.436;2023-08-17T08:52:07;7.55;;;2.28;;
65162;SDS011;51751;55.714;37.436;2023-08-17T08:54:35;5.35;;;2.67;;
65162;SDS011;51751;55.714;37.436;2023-08-17T08:57:03;5.53;;;2.50;;
65162;SDS011;51751;55.714;37.436;2023-08-17T08:59:33;12.73;;;2.65;;
65162;SDS011;51751;55.714;37.436;2023-08-17T09:01:59;7.10;;;2.70;;
65162;SDS011;51751;55.714;37.436;2023-08-17T09:04:25;9.65;;;2.50;;
65162;SDS011;51751;55.714;37.436;2023-08-17T09:06:52;6.47;;;2.47;;
65162;SDS011;51751;55.714;37.436;2023-08-17T09:09:19;6.93;;;2.70;;
65162;SDS011;51751;55.714;37.436;2023-08-17T09:11:45;8.90;;;2.40;;
65162;SDS011;51751;55.714;37.436;2023-08-17T09:14:11;5.20;;;2.50;;
65162;SDS011;51751;55.714;37.436;2023-08-17T09:16:37;6.82;;;2.70;;
65162;SDS011;51751;55.714;37.436;2023-08-17T09:19:04;8.65;;;2.50;;
65162;SDS011;51751;55.714;37.436;2023-08-17T09:21:31;6.97;;;2.70;;
65162;SDS011;51751;55.714;37.436;2023-08-17T09:23:58;16.05;;;3.13;;
65162;SDS011;51751;55.714;37.436;2023-08-17T09:26:24;7.22;;;2.85;;
65162;SDS011;51751;55.714;37.436;2023-08-17T09:28:53;9.30;;;2.70;;
65162;SDS011;51751;55.714;37.436;2023-08-17T09:31:25;8.23;;;3.35;;
65162;SDS011;51751;55.714;37.436;2023-08-17T09:33:51;6.45;;;2.72;;
65162;SDS011;51751;55.714;37.436;2023-08-17T09:36:21;3.95;;;2.60;;
65162;SDS011;51751;55.714;37.436;2023-08-17T09:38:53;7.30;;;2.40;;
65162;SDS011;51751;55.714;37.436;2023-08-17T09:41:25;5.28;;;2.50;;
65162;SDS011;51751;55.714;37.436;2023-08-17T09:43:51;6.38;;;2.60;;
65162;SDS011;51751;55.714;37.436;2023-08-17T09:46:17;8.10;;;2.75;;
65162;SDS011;51751;55.714;37.436;2023-08-17T09:48:43;7.10;;;2.70;;
65162;SDS011;51751;55.714;37.436;2023-08-17T09:51:14;4.85;;;2.65;;
65162;SDS011;51751;55.714;37.436;2023-08-17T09:53:41;6.95;;;2.53;;
65162;SDS011;51751;55.714;37.436;2023-08-17T09:56:08;10.63;;;2.83;;
65162;SDS011;51751;55.714;37.436;2023-08-17T09:58:37;8.57;;;2.65;;
65162;SDS011;51751;55.714;37.436;2023-08-17T10:01:04;7.25;;;2.72;;
65162;SDS011;51751;55.714;37.436;2023-08-17T10:03:32;6.90;;;2.60;;
65162;SDS011;51751;55.714;37.436;2023-08-17T10:06:04;10.70;;;2.70;;
65162;SDS011;51751;55.714;37.436;2023-08-17T10:08:36;4.13;;;2.42;;
65162;SDS011;51751;55.714;37.436;2023-08-17T10:11:08;5.85;;;2.47;;
65162;SDS011;51751;55.714;37.436;2023-08-17T10:19:05;4.53;;;2.50;;
65162;SDS011;51751;55.714;37.436;2023-08-17T10:21:37;7.78;;;2.72;;
65162;SDS011;51751;55.714;37.436;2023-08-17T10:24:05;5.47;;;2.70;;
65162;SDS011;51751;55.714;37.436;2023-08-17T10:26:33;4.13;;;2.78;;
65162;SDS011;51751;55.714;37.436;2023-08-17T10:28:59;5.05;;;2.50;;
65162;SDS011;51751;55.714;37.436;2023-08-17T10:31:28;5.28;;;2.67;;
65162;SDS011;51751;55.714;37.436;2023-08-17T10:33:55;6.75;;;2.70;;
65162;SDS011;51751;55.714;37.436;2023-08-17T10:36:21;6.95;;;2.50;;
65162;SDS011;51751;55.714;37.436;2023-08-17T10:38:47;9.27;;;2.70;;
65162;SDS011;51751;55.714;37.436;2023-08-17T10:41:45;6.90;;;2.70;;
65162;SDS011;51751;55.714;37.436;2023-08-17T10:44:13;4.68;;;2.50;;
65162;SDS011;51751;55.714;37.436;2023-08-17T10:46:39;3.95;;;2.65;;
65162;SDS011;51751;55.714;37.436;2023-08-17T10:49:07;5.13;;;2.67;;
65162;SDS011;51751;55.714;37.436;2023-08-17T10:52:06;7.00;;;2.60;;
65162;SDS011;51751;55.714;37.436;2023-08-17T10:54:43;5.15;;;2.70;;
65162;SDS011;51751;55.714;37.436;2023-08-17T11:00:14;7.70;;;2.53;;
65162;SDS011;51751;55.714;37.436;2023-08-17T11:02:57;8.10;;;2.70;;
65162;SDS011;51751;55.714;37.436;2023-08-17T11:08:01;4.43;;;2.50;;
65162;SDS011;51751;55.714;37.436;2023-08-17T11:10:30;9.85;;;2.88;;
65162;SDS011;51751;55.714;37.436;2023-08-17T11:12:57;7.78;;;2.53;;
65162;SDS011;51751;55.714;37.436;2023-08-17T11:15:40;6.90;;;2.53;;
65162;SDS011;51751;55.714;37.436;2023-08-17T11:18:11;5.95;;;2.70;;
65162;SDS011;51751;55.714;37.436;2023-08-17T11:20:38;7.82;;;2.60;;
65162;SDS011;51751;55.714;37.436;2023-08-17T11:23:05;5.43;;;2.65;;
65162;SDS011;51751;55.714;37.436;2023-08-17T11:25:32;6.97;;;2.70;;
65162;SDS011;51751;55.714;37.436;2023-08-17T11:28:01;6.03;;;2.50;;
65162;SDS011;51751;55.714;37.436;2023-08-17T11:30:29;6.18;;;3.00;;
65162;SDS011;51751;55.714;37.436;2023-08-17T11:32:57;5.95;;;2.47;;
65162;SDS011;51751;55.714;37.436;2023-08-17T11:35:46;9.02;;;2.72;;
65162;SDS011;51751;55.714;37.436;2023-08-17T11:38:23;4.97;;;2.67;;
65162;SDS011;51751;55.714;37.436;2023-08-17T11:41:16;7.10;;;2.90;;
65162;SDS011;51751;55.714;37.436;2023-08-17T11:43:52;9.05;;;2.55;;
65162;SDS011;51751;55.714;37.436;2023-08-17T11:46:36;14.05;;;3.05;;
65162;SDS011;51751;55.714;37.436;2023-08-17T11:49:04;4.40;;;2.60;;
65162;SDS011;51751;55.714;37.436;2023-08-17T11:51:31;6.93;;;2.50;;
65162;SDS011;51751;55.714;37.436;2023-08-17T11:54:02;7.05;;;2.72;;
65162;SDS011;51751;55.714;37.436;2023-08-17T11:56:30;4.15;;;2.45;;
65162;SDS011;51751;55.714;37.436;2023-08-17T11:58:56;6.63;;;2.40;;
65162;SDS011;51751;55.714;37.436;2023-08-17T12:01:22;6.63;;;2.47;;
65162;SDS011;51751;55.714;37.436;2023-08-17T12:03:48;4.88;;;2.60;;
65162;SDS011;51751;55.714;37.436;2023-08-17T12:06:15;4.63;;;2.70;;
65162;SDS011;51751;55.714;37.436;2023-08-17T12:08:46;6.25;;;2.53;;
65162;SDS011;51751;55.714;37.436;2023-08-17T12:11:12;3.53;;;2.47;;
65162;SDS011;51751;55.714;37.436;2023-08-17T12:13:38;7.60;;;2.80;;
65162;SDS011;51751;55.714;37.436;2023-08-17T12:16:04;7.47;;;2.40;;
65162;SDS011;51751;55.714;37.436;2023-08-17T12:18:33;12.55;;;3.10;;
65162;SDS011;51751;55.714;37.436;2023-08-17T12:20:59;6.60;;;2.70;;
65162;SDS011;51751;55.714;37.436;2023-08-17T12:23:26;9.27;;;2.85;;
65162;SDS011;51751;55.714;37.436;2023-08-17T12:25:54;8.82;;;2.88;;
65162;SDS011;51751;55.714;37.436;2023-08-17T12:28:23;10.57;;;2.90;;
65162;SDS011;51751;55.714;37.436;2023-08-17T12:31:10;6.38;;;2.53;;
65162;SDS011;51751;55.714;37.436;2023-08-17T12:33:35;7.75;;;2.70;;
65162;SDS011;51751;55.714;37.436;2023-08-17T12:36:07;5.85;;;2.90;;
65162;SDS011;51751;55.714;37.436;2023-08-17T12:38:36;5.18;;;3.00;;
65162;SDS011;51751;55.714;37.436;2023-08-17T12:41:03;9.15;;;2.80;;
65162;SDS011;51751;55.714;37.436;2023-08-17T12:43:29;7.97;;;2.80;;
65162;SDS011;51751;55.714;37.436;2023-08-17T12:45:55;8.88;;;2.83;;
65162;SDS011;51751;55.714;37.436;2023-08-17T12:48:24;5.10;;;2.53;;
65162;SDS011;51751;55.714;37.436;2023-08-17T12:50:50;5.85;;;2.70;;
65162;SDS011;51751;55.714;37.436;2023-08-17T12:53:16;8.10;;;2.65;;
65162;SDS011;51751;55.714;37.436;2023-08-17T12:55:42;6.35;;;2.80;;
65162;SDS011;51751;55.714;37.436;2023-08-17T12:58:08;5.80;;;2.63;;
65162;SDS011;51751;55.714;37.436;2023-08-17T13:00:35;11.45;;;3.38;;
65162;SDS011;51751;55.714;37.436;2023-08-17T13:03:20;8.55;;;2.95;;
65162;SDS011;51751;55.714;37.436;2023-08-17T13:05:46;8.10;;;2.70;;
65162;SDS011;51751;55.714;37.436;2023-08-17T13:08:15;5.47;;;2.70;;
65162;SDS011;51751;55.714;37.436;2023-08-17T13:10:43;12.57;;;2.85;;
65162;SDS011;51751;55.714;37.436;2023-08-17T13:13:09;9.13;;;2.75;;
65162;SDS011;51751;55.714;37.436;2023-08-17T13:15:37;12.68;;;2.80;;
65162;SDS011;51751;55.714;37.436;2023-08-17T13:18:06;7.25;;;2.80;;
65162;SDS011;51751;55.714;37.436;2023-08-17T13:20:41;8.18;;;3.00;;
65162;SDS011;51751;55.714;37.436;2023-08-17T13:23:10;9.80;;;2.70;;
65162;SDS011;51751;55.714;37.436;2023-08-17T13:25:39;6.65;;;2.50;;
65162;SDS011;51751;55.714;37.436;2023-08-17T13:28:05;9.30;;;2.65;;
65162;SDS011;51751;55.714;37.436;2023-08-17T13:30:31;5.65;;;2.50;;
65162;SDS011;51751;55.714;37.436;2023-08-17T13:33:02;8.77;;;3.00;;
65162;SDS011;51751;55.714;37.436;2023-08-17T13:35:28;7.68;;;2.70;;
65162;SDS011;51751;55.714;37.436;2023-08-17T13:37:54;6.50;;;2.47;;
65162;SDS011;51751;55.714;37.436;2023-08-17T13:40:24;5.53;;;2.72;;
65162;SDS011;51751;55.714;37.436;2023-08-17T13:42:51;11.38;;;2.67;;
65162;SDS011;51751;55.714;37.436;2023-08-17T13:45:16;8.52;;;2.80;;
65162;SDS011;51751;55.714;37.436;2023-08-17T13:47:45;6.32;;;2.65;;
65162;SDS011;51751;55.714;37.436;2023-08-17T13:50:11;12.18;;;2.80;;
65162;SDS011;51751;55.714;37.436;2023-08-17T13:52:37;6.28;;;2.75;;
65162;SDS011;51751;55.714;37.436;2023-08-17T13:55:03;8.13;;;2.60;;
65162;SDS011;51751;55.714;37.436;2023-08-17T13:57:29;3.17;;;2.30;;
65162;SDS011;51751;55.714;37.436;2023-08-17T13:59:55;5.15;;;2.45;;
65162;SDS011;51751;55.714;37.436;2023-08-17T14:02:24;13.57;;;2.58;;
65162;SDS011;51751;55.714;37.436;2023-08-17T14:04:51;7.30;;;2.55;;
65162;SDS011;51751;55.714;37.436;2023-08-17T14:07:22;8.18;;;2.85;;
65162;SDS011;51751;55.714;37.436;2023-08-17T14:09:51;9.77;;;2.70;;
65162;SDS011;51751;55.714;37.436;2023-08-17T14:12:19;10.30;;;2.83;;
65162;SDS011;51751;55.714;37.436;2023-08-17T14:14:47;5.95;;;2.65;;
65162;SDS011;51751;55.714;37.436;2023-08-17T14:17:21;5.55;;;2.50;;
65162;SDS011;51751;55.714;37.436;2023-08-17T14:19:47;7.85;;;2.45;;
65162;SDS011;51751;55.714;37.436;2023-08-17T14:22:13;7.15;;;2.80;;
65162;SDS011;51751;55.714;37.436;2023-08-17T14:24:39;9.75;;;2.70;;
65162;SDS011;51751;55.714;37.436;2023-08-17T14:27:05;5.63;;;2.40;;
65162;SDS011;51751;55.714;37.436;2023-08-17T14:29:31;7.78;;;2.72;;
65162;SDS011;51751;55.714;37.436;2023-08-17T14:31:57;8.88;;;2.50;;
65162;SDS011;51751;55.714;37.436;2023-08-17T14:34:25;5.82;;;2.78;;
65162;SDS011;51751;55.714;37.436;2023-08-17T14:36:51;6.03;;;2.50;;
65162;SDS011;51751;55.714;37.436;2023-08-17T14:39:17;4.38;;;2.55;;
65162;SDS011;51751;55.714;37.436;2023-08-17T14:41:55;5.65;;;2.45;;
65162;SDS011;51751;55.714;37.436;2023-08-17T14:44:24;5.45;;;2.58;;
65162;SDS011;51751;55.714;37.436;2023-08-17T14:46:51;4.70;;;2.55;;
65162;SDS011;51751;55.714;37.436;2023-08-17T14:49:17;9.23;;;2.65;;
65162;SDS011;51751;55.714;37.436;2023-08-17T14:51:43;6.43;;;2.58;;
65162;SDS011;51751;55.714;37.436;2023-08-17T14:54:12;5.00;;;2.38;;
65162;SDS011;51751;55.714;37.436;2023-08-17T14:56:44;6.43;;;2.42;;